Time;durP1;ratioP1;P1;durP2;ratioP2;P2;SDS_P1;SDS_P2;PMS_P1;PMS_P2;Temp;Humidity;BMP_temperature;BMP_pressure;BME280_temperature;BME280_humidity;BME280_pressure;Samples;Min_cycle;Max_cycle;Signal;HPM_P1;HPM_P2
2022/01/14 00:02:17;;;;;;;151.70;26.77;;;;;;;-145.18;100.00;46801.03;5029579;28;20286;-70
2022/01/14 00:04:43;;;;;;;132.50;25.87;;;;;;;-145.18;100.00;46789.31;5028485;28;20329;-70
2022/01/14 00:07:08;;;;;;;180.57;26.97;;;;;;;-145.18;100.00;46797.13;5029145;28;20690;-70
2022/01/14 00:09:35;;;;;;;143.83;26.20;;;;;;;-145.18;100.00;46789.31;5028111;28;20045;-72
2022/01/14 00:12:04;;;;;;;146.37;27.03;;;;;;;-145.18;100.00;46803.00;5029645;28;20541;-71
2022/01/14 00:14:39;;;;;;;170.20;25.10;;;;;;;-145.18;100.00;46787.38;5028776;28;20715;-70
2022/01/14 00:17:07;;;;;;;154.85;26.85;;;;;;;-145.18;100.00;46797.13;5028954;28;20267;-70
2022/01/14 00:19:33;;;;;;;195.23;26.03;;;;;;;-145.18;100.00;46795.19;5028538;28;20042;-70
2022/01/14 00:22:04;;;;;;;167.70;30.43;;;;;;;-145.18;100.00;46799.09;5028841;28;20355;-70
2022/01/14 00:24:31;;;;;;;122.90;27.77;;;;;;;-145.18;100.00;46783.47;5028371;28;20285;-70
2022/01/14 00:32:36;;;;;;;172.23;28.40;;;;;;;-145.18;100.00;46789.31;5028755;28;20285;-71
2022/01/14 00:35:02;;;;;;;104.83;28.53;;;;;;;-145.18;100.00;46789.31;5028340;28;20687;-70
2022/01/14 00:37:27;;;;;;;108.40;27.10;;;;;;;-145.18;100.00;46777.59;5028675;28;20271;-71
2022/01/14 00:39:53;;;;;;;147.90;28.50;;;;;;;-145.18;100.00;46810.81;5027126;28;20156;-71
2022/01/14 00:42:18;;;;;;;197.43;30.87;;;;;;;-145.18;100.00;46789.31;5028543;28;20084;-70
2022/01/14 00:44:43;;;;;;;134.67;27.90;;;;;;;-145.18;100.00;46787.38;5025320;28;20705;-70
2022/01/14 00:47:09;;;;;;;135.53;26.47;;;;;;;-145.18;100.00;46797.13;5029093;28;20041;-70
2022/01/14 00:49:34;;;;;;;205.93;31.33;;;;;;;-145.18;100.00;46799.09;5027676;28;20437;-69
2022/01/14 00:52:00;;;;;;;146.43;29.03;;;;;;;-145.18;100.00;46781.50;5028192;28;20072;-70
2022/01/14 00:54:26;;;;;;;123.77;30.23;;;;;;;-145.18;100.00;46785.41;5027467;28;20052;-70
2022/01/14 00:59:35;;;;;;;139.97;28.53;;;;;;;-145.18;100.00;46791.28;5026365;28;20274;-70
2022/01/14 01:02:02;;;;;;;150.30;28.47;;;;;;;-145.18;100.00;46804.94;5028038;28;20287;-69
2022/01/14 01:04:38;;;;;;;118.93;28.00;;;;;;;-145.18;100.00;46801.03;5027662;28;20043;-70
2022/01/14 01:07:09;;;;;;;145.75;27.95;;;;;;;-145.18;100.00;46801.03;5028037;28;20639;-69
2022/01/14 01:09:37;;;;;;;156.50;29.20;;;;;;;-145.18;100.00;46793.22;5027120;28;20079;-69
2022/01/14 01:14:56;;;;;;;159.70;27.70;;;;;;;-145.18;100.00;46783.47;5027405;28;20274;-69
2022/01/14 01:17:21;;;;;;;141.30;23.43;;;;;;;-145.18;100.00;46803.00;5028179;28;20322;-69
2022/01/14 01:19:46;;;;;;;133.93;25.47;;;;;;;-145.18;100.00;46797.13;5027154;28;20352;-69
2022/01/14 01:22:12;;;;;;;151.27;30.67;;;;;;;-145.18;100.00;46797.13;5026556;28;20526;-69
2022/01/14 01:24:37;;;;;;;138.77;28.90;;;;;;;-145.18;100.00;46791.28;5027240;28;20046;-70
2022/01/14 01:27:07;;;;;;;148.77;31.27;;;;;;;-145.18;100.00;46779.56;5027841;28;20757;-70
2022/01/14 01:32:02;;;;;;;248.27;35.13;;;;;;;-145.18;100.00;46803.00;5027404;28;20271;-71
2022/01/14 01:34:28;;;;;;;180.43;32.50;;;;;;;-145.18;100.00;46797.13;5027829;28;20286;-70
2022/01/14 01:36:56;;;;;;;133.33;29.07;;;;;;;-145.18;100.00;46812.75;5027171;28;20124;-70
2022/01/14 01:39:25;;;;;;;168.47;30.73;;;;;;;-145.18;100.00;46797.13;5027594;28;20037;-70
2022/01/14 01:41:55;;;;;;;137.93;30.70;;;;;;;-145.18;100.00;46791.28;5027156;28;20772;-70
2022/01/14 01:44:22;;;;;;;168.37;29.30;;;;;;;-145.18;100.00;46785.41;5027291;28;20267;-70
2022/01/14 01:46:49;;;;;;;139.83;31.50;;;;;;;-145.18;100.00;46781.50;5026988;28;20324;-70
2022/01/14 01:49:17;;;;;;;139.97;28.10;;;;;;;-145.18;100.00;46781.50;5027362;28;20251;-70
2022/01/14 01:51:45;;;;;;;143.03;31.73;;;;;;;-145.18;100.00;46771.75;5026781;28;20254;-70
2022/01/14 01:54:10;;;;;;;154.67;32.93;;;;;;;-145.18;100.00;46793.22;5026976;28;20278;-70
2022/01/14 01:56:36;;;;;;;118.00;31.63;;;;;;;-145.18;100.00;46775.66;5027201;28;20668;-70
2022/01/14 01:59:02;;;;;;;145.33;30.33;;;;;;;-145.18;100.00;46773.69;5027530;28;20494;-70
2022/01/14 02:01:28;;;;;;;125.00;31.07;;;;;;;-145.18;100.00;46787.38;5027078;28;20195;-70
2022/01/14 02:03:54;;;;;;;164.93;30.43;;;;;;;-145.18;100.00;46779.56;5026945;28;20843;-70
2022/01/14 02:06:21;;;;;;;146.10;32.87;;;;;;;-145.18;100.00;46785.41;5026640;28;20045;-70
2022/01/14 02:08:47;;;;;;;139.03;31.77;;;;;;;-145.18;100.00;46793.22;5026931;28;20281;-70
2022/01/14 02:11:12;;;;;;;151.80;28.90;;;;;;;-145.18;100.00;46777.59;5027027;28;20814;-70
2022/01/14 02:13:38;;;;;;;118.00;31.27;;;;;;;-145.18;100.00;46806.91;5027453;28;20038;-70
2022/01/14 02:18:47;;;;;;;153.93;32.00;;;;;;;-145.18;100.00;46787.38;5026910;28;20498;-70
2022/01/14 02:24:21;;;;;;;150.67;31.67;;;;;;;-145.18;100.00;46791.28;5027092;28;20306;-70
2022/01/14 02:26:52;;;;;;;199.20;30.40;;;;;;;-145.18;100.00;46769.78;5026674;28;20267;-70
2022/01/14 02:29:19;;;;;;;160.97;32.07;;;;;;;-145.18;100.00;46789.31;5027035;28;20263;-70
2022/01/14 02:31:45;;;;;;;175.40;31.90;;;;;;;-145.18;100.00;46797.13;5012332;28;20259;-69
2022/01/14 02:34:12;;;;;;;123.93;30.27;;;;;;;-145.18;100.00;46804.94;5007140;28;20286;-70
2022/01/14 02:36:43;;;;;;;151.50;31.30;;;;;;;-145.18;100.00;46793.22;5006227;28;20128;-70
2022/01/14 02:39:11;;;;;;;116.37;29.00;;;;;;;-145.18;100.00;46775.66;5024498;28;20267;-70
2022/01/14 02:41:39;;;;;;;183.77;30.30;;;;;;;-145.18;100.00;46791.28;5026211;28;20269;-69
2022/01/14 02:44:11;;;;;;;147.27;32.07;;;;;;;-145.18;100.00;46777.59;5026723;28;20345;-70
2022/01/14 02:46:42;;;;;;;146.73;30.93;;;;;;;-145.18;100.00;46787.38;5026452;28;20301;-69
2022/01/14 02:49:07;;;;;;;122.13;29.43;;;;;;;-145.18;100.00;46783.47;5026755;28;20285;-70
2022/01/14 02:51:33;;;;;;;134.43;30.23;;;;;;;-145.18;100.00;46804.94;5026272;28;20267;-70
2022/01/14 02:54:12;;;;;;;185.80;31.80;;;;;;;-145.18;100.00;46806.91;5027075;28;20042;-69
2022/01/14 02:56:41;;;;;;;144.67;29.80;;;;;;;-145.18;100.00;46785.41;5026110;28;20127;-70
2022/01/14 02:59:09;;;;;;;141.70;28.87;;;;;;;-145.18;100.00;46781.50;5026739;28;20679;-70
2022/01/14 03:01:35;;;;;;;145.10;29.00;;;;;;;-145.18;100.00;46775.66;5026249;28;20278;-69
2022/01/14 03:04:01;;;;;;;115.97;27.63;;;;;;;-145.18;100.00;46769.78;5026331;28;20299;-69
2022/01/14 03:06:28;;;;;;;159.00;25.97;;;;;;;-145.18;100.00;46791.28;5026463;28;20048;-70
2022/01/14 03:08:53;;;;;;;163.13;28.13;;;;;;;-145.18;100.00;46789.31;5029828;28;20063;-70
2022/01/14 03:11:46;;;;;;;137.43;27.90;;;;;;;-145.18;100.00;46795.19;5029881;28;20279;-70
2022/01/14 03:14:14;;;;;;;158.37;28.33;;;;;;;-145.18;100.00;46785.41;5030228;28;20406;-70
2022/01/14 03:16:41;;;;;;;145.10;28.67;;;;;;;-145.18;100.00;46791.28;5029547;28;20278;-69
2022/01/14 03:19:15;;;;;;;143.53;29.60;;;;;;;-145.18;100.00;46777.59;5029775;28;20274;-69
2022/01/14 03:21:41;;;;;;;174.20;29.57;;;;;;;-145.18;100.00;46791.28;5029852;28;20262;-70
2022/01/14 03:26:49;;;;;;;106.43;19.97;;;;;;;-145.18;100.00;46793.22;5029420;28;20297;-69
2022/01/14 03:29:16;;;;;;;156.33;28.70;;;;;;;-145.18;100.00;46801.03;5029845;28;20266;-69
2022/01/14 03:31:42;;;;;;;168.07;28.33;;;;;;;-145.18;100.00;46789.31;5029328;28;20285;-69
2022/01/14 03:34:08;;;;;;;161.40;27.37;;;;;;;-145.18;100.00;46799.09;5029830;28;20286;-70
2022/01/14 03:36:34;;;;;;;168.03;28.00;;;;;;;-145.18;100.00;46785.41;5029023;28;20267;-70
2022/01/14 03:38:59;;;;;;;133.20;27.50;;;;;;;-145.18;100.00;46801.03;5029486;28;20558;-69
2022/01/14 03:41:24;;;;;;;146.33;28.00;;;;;;;-145.18;100.00;46771.75;5029449;28;20045;-70
2022/01/14 03:43:50;;;;;;;146.93;27.53;;;;;;;-145.18;100.00;46787.38;5029160;28;20406;-69
2022/01/14 03:46:15;;;;;;;173.80;27.73;;;;;;;-145.18;100.00;46804.94;5029391;28;20115;-69
2022/01/14 03:48:41;;;;;;;103.20;24.40;;;;;;;-145.18;100.00;46797.13;5029201;28;20052;-70
2022/01/14 03:51:06;;;;;;;205.37;30.30;;;;;;;-145.18;100.00;46779.56;5028899;28;20034;-70
2022/01/14 03:53:31;;;;;;;145.03;29.07;;;;;;;-145.18;100.00;46797.13;5029377;28;20072;-70
2022/01/14 03:55:57;;;;;;;192.43;31.63;;;;;;;-145.18;100.00;46797.13;5029058;28;20398;-70
2022/01/14 03:58:23;;;;;;;100.40;28.63;;;;;;;-145.18;100.00;46799.09;5029217;28;20124;-69
2022/01/14 04:00:48;;;;;;;141.40;27.80;;;;;;;-145.18;100.00;46783.47;5028830;28;20029;-70
2022/01/14 04:03:13;;;;;;;144.27;27.87;;;;;;;-145.18;100.00;46783.47;5028204;28;20145;-70
2022/01/14 04:05:39;;;;;;;171.17;29.13;;;;;;;-145.18;100.00;46781.50;5028227;28;20042;-70
2022/01/14 04:08:05;;;;;;;132.73;28.73;;;;;;;-145.18;100.00;46781.50;5028838;28;20561;-70
2022/01/14 04:10:30;;;;;;;98.33;26.70;;;;;;;-145.18;100.00;46773.69;5029326;28;20528;-70
2022/01/14 04:15:38;;;;;;;153.60;28.03;;;;;;;-145.18;100.00;46801.03;5028680;28;20046;-70
2022/01/14 04:18:07;;;;;;;163.57;26.33;;;;;;;-145.18;100.00;46801.03;5028793;28;20279;-70
2022/01/14 04:20:35;;;;;;;140.03;29.10;;;;;;;-145.18;100.00;46785.41;5027887;28;20275;-69
2022/01/14 04:23:01;;;;;;;149.83;28.17;;;;;;;-145.18;100.00;46783.47;5028968;28;20275;-70
2022/01/14 04:25:27;;;;;;;135.50;26.10;;;;;;;-145.18;100.00;46793.22;5028015;28;20274;-69
2022/01/14 04:27:53;;;;;;;104.23;18.57;;;;;;;-145.18;100.00;46785.41;5028496;28;20100;-69
2022/01/14 04:30:19;;;;;;;123.77;29.23;;;;;;;-145.18;100.00;46775.66;5028218;28;20374;-69
2022/01/14 04:32:45;;;;;;;142.93;28.20;;;;;;;-145.18;100.00;46765.88;5028635;28;20049;-70
2022/01/14 04:35:10;;;;;;;129.77;26.63;;;;;;;-145.18;100.00;46773.69;5029000;28;20270;-70
2022/01/14 04:37:36;;;;;;;113.23;27.10;;;;;;;-145.18;100.00;46777.59;5027130;28;20049;-69
2022/01/14 04:40:02;;;;;;;103.27;27.47;;;;;;;-145.18;100.00;46773.69;5028555;28;20047;-69
2022/01/14 04:42:28;;;;;;;91.20;26.07;;;;;;;-145.18;100.00;46789.31;5028570;28;20041;-69
2022/01/14 04:44:55;;;;;;;116.43;27.30;;;;;;;-145.18;100.00;46787.38;5022045;28;20268;-69
2022/01/14 04:49:56;;;;;;;119.97;25.48;;;;;;;-145.18;100.00;46773.69;5028418;28;20278;-70
2022/01/14 04:52:22;;;;;;;96.87;25.93;;;;;;;-145.18;100.00;46777.59;5027882;28;20034;-70
2022/01/14 04:54:48;;;;;;;140.83;26.80;;;;;;;-145.18;100.00;46787.38;5027114;28;20042;-71
2022/01/14 04:57:16;;;;;;;111.67;25.50;;;;;;;-145.18;100.00;46781.50;5028634;28;20313;-69
2022/01/14 04:59:46;;;;;;;139.00;26.90;;;;;;;-145.18;100.00;46781.50;5027818;28;20044;-69
2022/01/14 05:02:12;;;;;;;135.60;27.40;;;;;;;-145.18;100.00;46783.47;5026173;28;20278;-70
2022/01/14 05:04:39;;;;;;;205.47;29.23;;;;;;;-145.18;100.00;46789.31;5017653;28;20387;-70
2022/01/14 05:07:04;;;;;;;136.07;26.63;;;;;;;-145.18;100.00;46791.28;5017798;28;20267;-69
2022/01/14 05:09:39;;;;;;;169.77;28.33;;;;;;;-145.18;100.00;46781.50;5018859;28;20278;-70
2022/01/14 05:12:08;;;;;;;165.80;28.50;;;;;;;-145.18;100.00;46793.22;5027698;28;20153;-70
2022/01/14 05:14:33;;;;;;;130.60;29.30;;;;;;;-145.18;100.00;46785.41;5026395;28;20283;-69
2022/01/14 05:16:59;;;;;;;161.70;29.70;;;;;;;-145.18;100.00;46777.59;5027823;28;20336;-69
2022/01/14 05:19:25;;;;;;;201.77;30.33;;;;;;;-145.18;100.00;46781.50;5027452;28;20124;-70
2022/01/14 05:21:50;;;;;;;186.37;27.10;;;;;;;-145.18;100.00;46801.03;5026364;28;20481;-69
2022/01/14 05:24:16;;;;;;;151.20;28.20;;;;;;;-145.18;100.00;46791.28;5009540;28;20384;-69
2022/01/14 05:26:41;;;;;;;110.20;27.83;;;;;;;-145.18;100.00;46775.66;5011016;28;20069;-70
2022/01/14 05:29:06;;;;;;;120.23;28.93;;;;;;;-145.18;100.00;46777.59;5027435;28;20045;-69
2022/01/14 05:31:50;;;;;;;146.37;29.33;;;;;;;-145.18;100.00;46777.59;5024463;28;20048;-69
2022/01/14 05:34:15;;;;;;;108.63;28.37;;;;;;;-145.18;100.00;46765.88;5015193;28;20542;-69
2022/01/14 05:36:41;;;;;;;142.13;29.43;;;;;;;-145.18;100.00;46779.56;5006159;28;20278;-69
2022/01/14 05:39:07;;;;;;;163.70;28.90;;;;;;;-145.18;100.00;46779.56;5011038;28;20042;-69
2022/01/14 05:41:33;;;;;;;174.23;27.83;;;;;;;-145.18;100.00;46785.41;5016318;28;20044;-70
2022/01/14 05:43:58;;;;;;;225.20;30.50;;;;;;;-145.18;100.00;46785.41;5008384;28;20042;-70
2022/01/14 05:46:24;;;;;;;178.03;27.17;;;;;;;-145.18;100.00;46781.50;5007401;28;20547;-69
2022/01/14 05:48:49;;;;;;;151.77;28.77;;;;;;;-145.18;100.00;46779.56;5007180;28;20033;-69
2022/01/14 05:51:15;;;;;;;163.67;29.20;;;;;;;-145.18;100.00;46781.50;5005779;28;20030;-69
2022/01/14 05:53:40;;;;;;;153.93;27.67;;;;;;;-145.18;100.00;46795.19;5006945;28;20129;-70
2022/01/14 05:56:06;;;;;;;134.90;27.10;;;;;;;-145.18;100.00;46767.84;5006917;28;20042;-70
2022/01/14 05:58:31;;;;;;;129.67;28.60;;;;;;;-145.18;100.00;46779.56;5007988;28;20446;-70
2022/01/14 06:00:57;;;;;;;109.43;26.13;;;;;;;-145.18;100.00;46785.41;5006838;28;20065;-70
2022/01/14 06:03:22;;;;;;;139.30;27.50;;;;;;;-145.18;100.00;46783.47;5007323;28;20038;-70
2022/01/14 06:05:48;;;;;;;190.30;27.93;;;;;;;-145.18;100.00;46793.22;5006558;28;20038;-70
2022/01/14 06:08:14;;;;;;;192.80;30.23;;;;;;;-145.18;100.00;46791.28;5004880;28;20133;-70
2022/01/14 06:10:39;;;;;;;194.10;29.20;;;;;;;-145.18;100.00;46785.41;5005186;28;20770;-70
2022/01/14 06:13:04;;;;;;;175.13;29.57;;;;;;;-145.18;100.00;46775.66;5025754;28;20056;-70
2022/01/14 06:15:30;;;;;;;141.33;28.53;;;;;;;-145.18;100.00;46781.50;5026230;28;20457;-70
2022/01/14 06:17:55;;;;;;;169.77;29.47;;;;;;;-145.18;100.00;46785.41;5026584;28;20044;-70
2022/01/14 06:20:21;;;;;;;180.93;27.73;;;;;;;-145.18;100.00;46785.41;5026855;28;20050;-69
2022/01/14 06:22:46;;;;;;;159.77;26.47;;;;;;;-145.18;100.00;46791.28;5025659;28;20045;-69
2022/01/14 06:25:11;;;;;;;163.30;26.70;;;;;;;-145.18;100.00;46785.41;5026362;28;20102;-70
2022/01/14 06:27:37;;;;;;;206.33;28.53;;;;;;;-145.18;100.00;46791.28;5025553;28;20495;-70
2022/01/14 06:30:05;;;;;;;244.40;32.10;;;;;;;-145.18;100.00;46791.28;5026811;28;20053;-69
2022/01/14 06:32:31;;;;;;;126.70;26.43;;;;;;;-145.18;100.00;46793.22;5025679;28;20576;-69
2022/01/14 06:34:56;;;;;;;124.17;26.70;;;;;;;-145.18;100.00;46783.47;5026488;28;20283;-69
2022/01/14 06:37:22;;;;;;;192.53;30.57;;;;;;;-145.18;100.00;46793.22;5026505;28;20052;-70
2022/01/14 06:39:48;;;;;;;120.27;26.63;;;;;;;-145.18;100.00;46779.56;5026315;28;20038;-70
2022/01/14 06:42:13;;;;;;;166.87;28.77;;;;;;;-145.18;100.00;46785.41;5028243;28;20132;-69
2022/01/14 06:44:38;;;;;;;148.70;26.43;;;;;;;-145.18;100.00;46787.38;5029997;28;20042;-70
2022/01/14 06:47:05;;;;;;;154.90;25.50;;;;;;;-145.18;100.00;46801.03;5029386;28;20119;-69
2022/01/14 06:49:30;;;;;;;171.30;27.00;;;;;;;-145.18;100.00;46777.59;5029957;28;20037;-69
2022/01/14 06:51:56;;;;;;;163.47;26.37;;;;;;;-145.18;100.00;46801.03;5028600;28;20313;-70
2022/01/14 06:54:21;;;;;;;144.97;26.53;;;;;;;-145.18;100.00;46787.38;5029897;28;20053;-69
2022/01/14 06:56:47;;;;;;;227.03;25.53;;;;;;;-145.18;100.00;46797.13;5029690;28;20133;-69
2022/01/14 06:59:12;;;;;;;189.10;26.03;;;;;;;-145.18;100.00;46804.94;5029829;28;20650;-69
2022/01/14 07:01:38;;;;;;;210.33;28.43;;;;;;;-145.18;100.00;46814.72;5029460;28;20033;-69
2022/01/14 07:04:03;;;;;;;197.20;25.87;;;;;;;-145.18;100.00;46806.91;5030081;28;20132;-69
2022/01/14 07:06:29;;;;;;;142.10;26.87;;;;;;;-145.18;100.00;46799.09;5029191;28;20478;-69
2022/01/14 07:08:54;;;;;;;183.83;23.90;;;;;;;-145.18;100.00;46803.00;5029750;28;20088;-69
2022/01/14 07:11:25;;;;;;;135.03;24.77;;;;;;;-145.18;100.00;46795.19;5028296;28;20045;-69
2022/01/14 07:13:50;;;;;;;98.97;25.73;;;;;;;-145.18;100.00;46769.78;5012587;28;20045;-69
2022/01/14 07:16:15;;;;;;;187.20;28.60;;;;;;;-145.18;100.00;46781.50;5009465;28;20752;-69
2022/01/14 07:18:45;;;;;;;180.90;27.47;;;;;;;-145.18;100.00;46781.50;5009843;28;20562;-69
2022/01/14 07:21:10;;;;;;;137.70;25.90;;;;;;;-145.18;100.00;46781.50;5008475;28;20034;-69
2022/01/14 07:23:35;;;;;;;124.27;25.33;;;;;;;-145.18;100.00;46785.41;5009531;28;20290;-69
2022/01/14 07:26:01;;;;;;;161.57;25.83;;;;;;;-145.18;100.00;46804.94;5008505;28;20621;-70
2022/01/14 07:28:26;;;;;;;140.47;26.03;;;;;;;-145.18;100.00;46799.09;5010609;28;20041;-69
2022/01/14 07:30:52;;;;;;;170.90;26.13;;;;;;;-145.18;100.00;46781.50;5008750;28;20053;-69
2022/01/14 07:33:17;;;;;;;209.60;24.43;;;;;;;-145.18;100.00;46810.81;5021252;28;20140;-69
2022/01/14 07:35:43;;;;;;;92.37;22.80;;;;;;;-145.18;100.00;46795.19;5024540;28;20041;-69
2022/01/14 07:38:09;;;;;;;167.27;26.30;;;;;;;-145.18;100.00;46818.63;5019267;28;20038;-69
2022/01/14 07:40:34;;;;;;;179.17;26.20;;;;;;;-145.18;100.00;46799.09;5027412;28;20270;-69
2022/01/14 07:43:00;;;;;;;111.77;24.53;;;;;;;-145.18;100.00;46801.03;5024727;28;20108;-69
2022/01/14 07:45:25;;;;;;;165.80;27.13;;;;;;;-145.18;100.00;46804.94;5012665;28;20052;-69
2022/01/14 07:47:50;;;;;;;131.40;25.83;;;;;;;-145.18;100.00;46801.03;5017396;28;20044;-69
2022/01/14 07:50:16;;;;;;;129.70;26.43;;;;;;;-145.18;100.00;46804.94;5028372;28;20071;-69
2022/01/14 07:52:42;;;;;;;219.33;30.03;;;;;;;-145.18;100.00;46801.03;5026666;28;20041;-69
2022/01/14 07:55:08;;;;;;;115.67;28.80;;;;;;;-145.18;100.00;46789.31;5028505;28;20052;-69
2022/01/14 07:57:33;;;;;;;179.30;30.10;;;;;;;-145.18;100.00;46806.91;5026595;28;20049;-69
2022/01/14 07:59:59;;;;;;;210.63;29.30;;;;;;;-145.18;100.00;46793.22;5027968;28;20498;-69
2022/01/14 08:02:25;;;;;;;104.10;23.83;;;;;;;-145.18;100.00;46824.47;5027183;28;20064;-69
2022/01/14 08:04:51;;;;;;;149.17;25.33;;;;;;;-145.18;100.00;46789.31;5028358;28;20045;-69
2022/01/14 08:07:23;;;;;;;160.00;25.00;;;;;;;-145.18;100.00;46814.72;5028340;28;20279;-69
2022/01/14 08:09:48;;;;;;;220.33;30.33;;;;;;;-145.18;100.00;46801.03;5028074;28;20445;-69
2022/01/14 08:12:14;;;;;;;105.30;26.40;;;;;;;-145.18;100.00;46814.72;5028486;28;20686;-69
2022/01/14 08:14:40;;;;;;;149.87;30.17;;;;;;;-145.18;100.00;46795.19;5025091;28;20041;-69
2022/01/14 08:17:06;;;;;;;168.17;51.57;;;;;;;-145.18;100.00;46806.91;5027865;28;20121;-69
2022/01/14 08:19:33;;;;;;;148.80;30.63;;;;;;;-145.18;100.00;46799.09;5028259;28;20263;-69
2022/01/14 08:22:03;;;;;;;142.40;28.17;;;;;;;-145.18;100.00;46804.94;5028190;28;20259;-69
2022/01/14 08:24:30;;;;;;;218.13;31.33;;;;;;;-145.18;100.00;46808.84;5028342;28;20350;-69
2022/01/14 08:26:56;;;;;;;138.77;27.37;;;;;;;-145.18;100.00;46810.81;5027715;28;20263;-69
2022/01/14 08:29:21;;;;;;;172.57;29.97;;;;;;;-145.18;100.00;46812.75;5028365;28;20324;-69
2022/01/14 08:31:47;;;;;;;205.90;31.17;;;;;;;-145.18;100.00;46801.03;5026950;28;20477;-69
2022/01/14 08:34:12;;;;;;;197.00;29.97;;;;;;;-145.18;100.00;46793.22;5028993;28;20041;-69
2022/01/14 08:36:37;;;;;;;154.57;31.33;;;;;;;-145.18;100.00;46806.91;5027240;28;20060;-69
2022/01/14 08:39:03;;;;;;;106.03;25.50;;;;;;;-145.18;100.00;46812.75;5028614;28;20414;-69
2022/01/14 08:41:30;;;;;;;104.83;26.97;;;;;;;-145.18;100.00;46808.84;5026290;28;20116;-69
2022/01/14 08:43:58;;;;;;;192.07;28.77;;;;;;;-145.18;100.00;46806.91;5027792;28;20494;-69
2022/01/14 08:46:23;;;;;;;131.03;26.30;;;;;;;-145.18;100.00;46804.94;5027057;28;20291;-70
2022/01/14 08:48:49;;;;;;;141.40;27.07;;;;;;;-145.18;100.00;46801.03;5028548;28;20278;-69
2022/01/14 08:51:14;;;;;;;137.03;27.37;;;;;;;-145.18;100.00;46806.91;5027975;28;20037;-69
2022/01/14 08:53:40;;;;;;;184.90;28.67;;;;;;;-145.18;100.00;46826.44;5027505;28;20059;-69
2022/01/14 08:56:05;;;;;;;106.23;26.27;;;;;;;-145.18;100.00;46803.00;5027335;28;20587;-69
2022/01/14 08:58:31;;;;;;;123.53;27.37;;;;;;;-145.18;100.00;46828.38;5027920;28;20084;-69
2022/01/14 09:00:56;;;;;;;101.57;25.97;;;;;;;-145.18;100.00;46812.75;5026069;28;20042;-70
2022/01/14 09:03:21;;;;;;;107.87;25.10;;;;;;;-145.18;100.00;46814.72;5026881;28;20486;-69
2022/01/14 09:05:47;;;;;;;128.83;26.77;;;;;;;-145.18;100.00;46824.47;5026037;28;20045;-69
2022/01/14 09:08:12;;;;;;;109.43;25.60;;;;;;;-145.18;100.00;46820.56;5025471;28;20388;-69
2022/01/14 09:10:39;;;;;;;97.77;25.83;;;;;;;-145.18;100.00;46824.47;5026457;28;20049;-69
2022/01/14 09:13:05;;;;;;;118.87;26.53;;;;;;;-145.18;100.00;46816.66;5011878;28;20109;-69
2022/01/14 09:15:30;;;;;;;145.43;30.07;;;;;;;-145.18;100.00;46826.44;5007226;28;20306;-69
2022/01/14 09:17:56;;;;;;;97.40;29.10;;;;;;;-145.18;100.00;46820.56;5027192;28;20277;-69
2022/01/14 09:20:21;;;;;;;113.07;27.00;;;;;;;-145.18;100.00;46832.28;5027305;28;20038;-69
2022/01/14 09:22:48;;;;;;;165.80;28.73;;;;;;;-145.18;100.00;46840.09;5026769;28;20514;-69
2022/01/14 09:25:16;;;;;;;115.30;31.53;;;;;;;-145.18;100.00;46834.25;5027321;28;20034;-69
2022/01/14 09:27:42;;;;;;;78.77;27.37;;;;;;;-145.18;100.00;46836.19;5025585;28;20283;-69
2022/01/14 09:30:07;;;;;;;112.50;30.27;;;;;;;-145.18;100.00;46844.00;5024047;28;20271;-70
2022/01/14 09:32:33;;;;;;;92.57;28.80;;;;;;;-145.18;100.00;46844.00;5026488;28;20482;-70
2022/01/14 09:35:03;;;;;;;93.73;30.87;;;;;;;-145.18;100.00;46847.91;5027117;28;20407;-69
2022/01/14 09:37:29;;;;;;;73.57;27.33;;;;;;;-145.18;100.00;46824.47;5011645;28;20578;-69
2022/01/14 09:39:54;;;;;;;78.90;27.37;;;;;;;-145.18;100.00;46826.44;5021921;28;20278;-69
2022/01/14 09:42:20;;;;;;;79.73;27.77;;;;;;;-145.18;100.00;46822.53;5026578;28;20263;-69
2022/01/14 09:44:45;;;;;;;76.57;26.40;;;;;;;-145.18;100.00;46842.06;5026649;28;20049;-68
2022/01/14 09:47:19;;;;;;;66.63;27.20;;;;;;;-145.18;100.00;46844.00;5026915;28;20122;-70
2022/01/14 09:49:45;;;;;;;63.07;26.17;;;;;;;-145.18;100.00;46822.53;5027168;28;20501;-69
2022/01/14 09:52:15;;;;;;;59.57;27.00;;;;;;;-145.18;100.00;46849.88;5026653;28;20270;-70
2022/01/14 09:54:42;;;;;;;57.13;25.63;;;;;;;-145.18;100.00;46834.25;5026643;28;20263;-69
2022/01/14 09:57:12;;;;;;;54.77;26.20;;;;;;;-145.18;100.00;46832.28;5027080;28;20650;-69
2022/01/14 09:59:38;;;;;;;53.90;27.33;;;;;;;-145.18;100.00;46820.56;5026779;28;20373;-69
2022/01/14 10:02:04;;;;;;;77.93;25.40;;;;;;;-145.18;100.00;46844.00;5026775;28;20321;-69
2022/01/14 10:04:30;;;;;;;56.20;24.87;;;;;;;-145.18;100.00;46834.25;5026653;28;20049;-69
2022/01/14 10:06:57;;;;;;;64.70;25.60;;;;;;;-145.18;100.00;46840.09;5026324;28;20494;-69
2022/01/14 10:09:39;;;;;;;51.07;25.87;;;;;;;-145.18;100.00;46840.09;5026884;28;20271;-69
2022/01/14 10:12:05;;;;;;;55.17;25.97;;;;;;;-145.18;100.00;46838.16;5026060;28;20285;-69
2022/01/14 10:14:32;;;;;;;55.07;25.80;;;;;;;-145.18;100.00;46851.81;5026281;28;20278;-69
2022/01/14 10:17:00;;;;;;;46.23;25.57;;;;;;;-145.18;100.00;46855.72;5025630;28;20285;-69
2022/01/14 10:19:28;;;;;;;53.43;26.30;;;;;;;-145.18;100.00;46844.00;5030943;28;20294;-69
2022/01/14 10:21:54;;;;;;;43.93;23.97;;;;;;;-145.18;100.00;46849.88;5029923;28;20550;-69
2022/01/14 10:24:22;;;;;;;48.37;25.83;;;;;;;-145.18;100.00;46842.06;5031127;28;20286;-69
2022/01/14 10:26:57;;;;;;;58.83;27.63;;;;;;;-145.18;100.00;46855.72;5029743;28;20634;-69
2022/01/14 10:29:34;;;;;;;49.20;24.40;;;;;;;-145.18;100.00;46859.63;5028325;28;20280;-69
2022/01/14 10:32:01;;;;;;;43.97;24.80;;;;;;;-145.18;100.00;46867.44;5028969;28;20262;-69
2022/01/14 10:34:27;;;;;;;47.63;23.97;;;;;;;-145.18;100.00;46845.97;5030690;28;20263;-69
2022/01/14 10:37:14;;;;;;;41.63;25.00;;;;;;;-145.18;100.00;46842.06;5029597;28;20289;-69
2022/01/14 10:39:48;;;;;;;46.33;25.20;;;;;;;-145.18;100.00;46838.16;5029423;28;20127;-69
2022/01/14 10:42:23;;;;;;;49.63;24.83;;;;;;;-145.18;100.00;46855.72;5029759;28;20262;-69
2022/01/14 10:44:49;;;;;;;46.63;25.13;;;;;;;-145.18;100.00;46861.59;5028793;28;20716;-69
2022/01/14 10:47:18;;;;;;;38.93;23.67;;;;;;;-145.18;100.00;46875.28;5027982;28;20285;-69
2022/01/14 10:49:46;;;;;;;43.50;23.63;;;;;;;-145.18;100.00;46845.97;5029672;28;20267;-69
2022/01/14 10:52:16;;;;;;;44.53;25.20;;;;;;;-145.18;100.00;46867.44;5029662;28;20308;-69
2022/01/14 10:54:45;;;;;;;41.07;24.67;;;;;;;-145.18;100.00;46863.53;5029222;28;20341;-70
2022/01/14 10:57:16;;;;;;;42.90;24.10;;;;;;;-145.18;100.00;46863.53;5029076;28;20271;-70
2022/01/14 10:59:42;;;;;;;45.67;24.33;;;;;;;-145.18;100.00;46844.00;5029671;28;20282;-69
2022/01/14 11:02:34;;;;;;;49.87;26.17;;;;;;;-145.18;100.00;46883.09;5029924;28;20271;-69
2022/01/14 11:05:14;;;;;;;43.30;23.63;;;;;;;-145.18;100.00;46865.50;5030243;28;20720;-70
2022/01/14 11:07:41;;;;;;;44.10;24.77;;;;;;;-145.18;100.00;46875.28;5029608;28;20281;-70
2022/01/14 11:10:26;;;;;;;45.93;24.63;;;;;;;-145.18;100.00;46883.09;5029723;28;20275;-70
2022/01/14 11:12:53;;;;;;;42.37;23.80;;;;;;;-145.18;100.00;46867.44;5029126;28;20294;-69
2022/01/14 11:15:20;;;;;;;43.70;24.53;;;;;;;-145.18;100.00;46879.19;5029997;28;20278;-70